sensor_id;sensor_type;location;lat;lon;timestamp;P1;durP1;ratioP1;P2;durP2;ratioP2
23410;SDS011;11878;51.774;7.220;2023-04-15T00:00:18;4.73;;;2.90;;
23410;SDS011;11878;51.774;7.220;2023-04-15T00:03:20;8.37;;;2.97;;
23410;SDS011;11878;51.774;7.220;2023-04-15T00:06:23;5.90;;;3.10;;
23410;SDS011;11878;51.774;7.220;2023-04-15T00:09:25;9.73;;;3.13;;
23410;SDS011;11878;51.774;7.220;2023-04-15T00:12:27;4.73;;;2.83;;
23410;SDS011;11878;51.774;7.220;2023-04-15T00:15:29;6.33;;;3.43;;
23410;SDS011;11878;51.774;7.220;2023-04-15T00:18:30;7.77;;;3.53;;
23410;SDS011;11878;51.774;7.220;2023-04-15T00:21:32;5.10;;;3.20;;
23410;SDS011;11878;51.774;7.220;2023-04-15T00:24:34;6.03;;;3.43;;
23410;SDS011;11878;51.774;7.220;2023-04-15T00:27:36;6.53;;;3.50;;
23410;SDS011;11878;51.774;7.220;2023-04-15T00:30:38;6.50;;;3.30;;
23410;SDS011;11878;51.774;7.220;2023-04-15T00:33:40;9.00;;;4.03;;
23410;SDS011;11878;51.774;7.220;2023-04-15T00:36:42;11.93;;;4.07;;
23410;SDS011;11878;51.774;7.220;2023-04-15T00:39:45;7.40;;;3.23;;
23410;SDS011;11878;51.774;7.220;2023-04-15T00:46:18;5.60;;;3.00;;
23410;SDS011;11878;51.774;7.220;2023-04-15T00:49:21;7.67;;;3.50;;
23410;SDS011;11878;51.774;7.220;2023-04-15T00:52:24;6.90;;;3.10;;
23410;SDS011;11878;51.774;7.220;2023-04-15T00:55:26;5.33;;;3.17;;
23410;SDS011;11878;51.774;7.220;2023-04-15T00:58:28;6.67;;;3.87;;
23410;SDS011;11878;51.774;7.220;2023-04-15T01:01:30;7.70;;;3.90;;
23410;SDS011;11878;51.774;7.220;2023-04-15T01:04:32;7.20;;;3.73;;
23410;SDS011;11878;51.774;7.220;2023-04-15T01:07:36;5.43;;;3.80;;
23410;SDS011;11878;51.774;7.220;2023-04-15T01:10:38;9.33;;;3.70;;
23410;SDS011;11878;51.774;7.220;2023-04-15T01:13:39;6.77;;;3.47;;
23410;SDS011;11878;51.774;7.220;2023-04-15T01:16:41;6.60;;;3.57;;
23410;SDS011;11878;51.774;7.220;2023-04-15T01:19:45;6.40;;;3.17;;
23410;SDS011;11878;51.774;7.220;2023-04-15T01:22:48;7.57;;;3.90;;
23410;SDS011;11878;51.774;7.220;2023-04-15T01:25:50;6.37;;;4.30;;
23410;SDS011;11878;51.774;7.220;2023-04-15T01:28:53;8.23;;;3.77;;
23410;SDS011;11878;51.774;7.220;2023-04-15T01:31:57;7.47;;;3.67;;
23410;SDS011;11878;51.774;7.220;2023-04-15T01:35:00;6.20;;;3.90;;
23410;SDS011;11878;51.774;7.220;2023-04-15T01:38:06;8.57;;;3.60;;
23410;SDS011;11878;51.774;7.220;2023-04-15T01:41:12;5.13;;;3.23;;
23410;SDS011;11878;51.774;7.220;2023-04-15T01:44:14;6.30;;;3.90;;
23410;SDS011;11878;51.774;7.220;2023-04-15T01:47:15;7.93;;;4.40;;
23410;SDS011;11878;51.774;7.220;2023-04-15T01:50:17;6.73;;;3.83;;
23410;SDS011;11878;51.774;7.220;2023-04-15T01:53:21;7.50;;;4.03;;
23410;SDS011;11878;51.774;7.220;2023-04-15T01:56:23;12.23;;;5.13;;
23410;SDS011;11878;51.774;7.220;2023-04-15T01:59:25;7.03;;;4.17;;
23410;SDS011;11878;51.774;7.220;2023-04-15T02:02:27;6.13;;;3.77;;
23410;SDS011;11878;51.774;7.220;2023-04-15T02:05:30;11.53;;;4.67;;
23410;SDS011;11878;51.774;7.220;2023-04-15T02:08:31;6.97;;;3.97;;
23410;SDS011;11878;51.774;7.220;2023-04-15T02:11:33;8.00;;;3.57;;
23410;SDS011;11878;51.774;7.220;2023-04-15T02:14:37;8.90;;;4.00;;
23410;SDS011;11878;51.774;7.220;2023-04-15T02:17:39;8.50;;;4.10;;
23410;SDS011;11878;51.774;7.220;2023-04-15T02:20:50;6.87;;;3.97;;
23410;SDS011;11878;51.774;7.220;2023-04-15T02:23:52;7.23;;;4.20;;
23410;SDS011;11878;51.774;7.220;2023-04-15T02:26:54;6.47;;;3.53;;
23410;SDS011;11878;51.774;7.220;2023-04-15T02:29:56;6.60;;;3.57;;
23410;SDS011;11878;51.774;7.220;2023-04-15T02:33:00;8.03;;;4.50;;
23410;SDS011;11878;51.774;7.220;2023-04-15T02:36:02;6.70;;;3.73;;
23410;SDS011;11878;51.774;7.220;2023-04-15T02:39:05;8.40;;;4.53;;
23410;SDS011;11878;51.774;7.220;2023-04-15T02:42:19;10.90;;;3.73;;
23410;SDS011;11878;51.774;7.220;2023-04-15T02:45:23;7.97;;;3.87;;
23410;SDS011;11878;51.774;7.220;2023-04-15T02:48:34;9.10;;;4.60;;
23410;SDS011;11878;51.774;7.220;2023-04-15T02:51:37;6.93;;;4.63;;
23410;SDS011;11878;51.774;7.220;2023-04-15T02:54:39;8.27;;;4.40;;
23410;SDS011;11878;51.774;7.220;2023-04-15T02:57:41;6.23;;;3.50;;
23410;SDS011;11878;51.774;7.220;2023-04-15T03:00:44;7.37;;;3.70;;
23410;SDS011;11878;51.774;7.220;2023-04-15T03:03:46;10.93;;;4.17;;
23410;SDS011;11878;51.774;7.220;2023-04-15T03:06:47;10.70;;;4.33;;
23410;SDS011;11878;51.774;7.220;2023-04-15T03:09:50;11.87;;;4.60;;
23410;SDS011;11878;51.774;7.220;2023-04-15T03:12:51;7.10;;;3.90;;
23410;SDS011;11878;51.774;7.220;2023-04-15T03:15:56;9.60;;;4.90;;
23410;SDS011;11878;51.774;7.220;2023-04-15T03:18:58;12.57;;;4.60;;
23410;SDS011;11878;51.774;7.220;2023-04-15T03:22:00;8.67;;;4.37;;
23410;SDS011;11878;51.774;7.220;2023-04-15T03:25:02;9.87;;;4.73;;
23410;SDS011;11878;51.774;7.220;2023-04-15T03:28:06;8.37;;;4.33;;
23410;SDS011;11878;51.774;7.220;2023-04-15T03:31:08;8.73;;;4.53;;
23410;SDS011;11878;51.774;7.220;2023-04-15T03:34:10;7.23;;;3.80;;
23410;SDS011;11878;51.774;7.220;2023-04-15T03:37:12;9.50;;;4.60;;
23410;SDS011;11878;51.774;7.220;2023-04-15T03:40:13;9.37;;;4.47;;
23410;SDS011;11878;51.774;7.220;2023-04-15T03:43:15;9.43;;;5.17;;
23410;SDS011;11878;51.774;7.220;2023-04-15T03:46:17;10.77;;;4.90;;
23410;SDS011;11878;51.774;7.220;2023-04-15T03:49:19;15.97;;;5.57;;
23410;SDS011;11878;51.774;7.220;2023-04-15T03:52:23;9.33;;;4.47;;
23410;SDS011;11878;51.774;7.220;2023-04-15T03:55:24;9.47;;;5.13;;
23410;SDS011;11878;51.774;7.220;2023-04-15T03:58:27;7.00;;;4.83;;
23410;SDS011;11878;51.774;7.220;2023-04-15T04:08:31;8.93;;;4.57;;
23410;SDS011;11878;51.774;7.220;2023-04-15T04:15:11;9.50;;;4.90;;
23410;SDS011;11878;51.774;7.220;2023-04-15T04:18:22;9.23;;;5.57;;
23410;SDS011;11878;51.774;7.220;2023-04-15T04:21:32;10.17;;;6.00;;
23410;SDS011;11878;51.774;7.220;2023-04-15T04:24:57;7.23;;;4.83;;
23410;SDS011;11878;51.774;7.220;2023-04-15T04:28:01;9.03;;;5.23;;
23410;SDS011;11878;51.774;7.220;2023-04-15T04:31:03;10.97;;;5.50;;
23410;SDS011;11878;51.774;7.220;2023-04-15T04:34:06;9.87;;;5.53;;
23410;SDS011;11878;51.774;7.220;2023-04-15T04:37:08;9.90;;;6.23;;
23410;SDS011;11878;51.774;7.220;2023-04-15T04:40:11;10.30;;;5.60;;
23410;SDS011;11878;51.774;7.220;2023-04-15T04:43:13;11.07;;;6.43;;
23410;SDS011;11878;51.774;7.220;2023-04-15T04:46:16;8.93;;;6.07;;
23410;SDS011;11878;51.774;7.220;2023-04-15T04:49:19;9.93;;;5.30;;
23410;SDS011;11878;51.774;7.220;2023-04-15T04:52:21;9.83;;;5.87;;
23410;SDS011;11878;51.774;7.220;2023-04-15T04:55:24;11.77;;;5.63;;
23410;SDS011;11878;51.774;7.220;2023-04-15T05:01:49;9.13;;;5.40;;
23410;SDS011;11878;51.774;7.220;2023-04-15T05:04:51;9.63;;;4.90;;
23410;SDS011;11878;51.774;7.220;2023-04-15T05:11:33;9.90;;;5.30;;
23410;SDS011;11878;51.774;7.220;2023-04-15T05:15:01;9.07;;;5.50;;
23410;SDS011;11878;51.774;7.220;2023-04-15T05:18:23;10.27;;;6.07;;
23410;SDS011;11878;51.774;7.220;2023-04-15T05:24:56;9.77;;;5.77;;
23410;SDS011;11878;51.774;7.220;2023-04-15T05:27:58;8.83;;;4.90;;
23410;SDS011;11878;51.774;7.220;2023-04-15T05:31:00;10.17;;;5.63;;
23410;SDS011;11878;51.774;7.220;2023-04-15T05:34:02;11.83;;;6.07;;
23410;SDS011;11878;51.774;7.220;2023-04-15T05:37:05;11.93;;;6.57;;
23410;SDS011;11878;51.774;7.220;2023-04-15T05:40:07;11.63;;;6.67;;
23410;SDS011;11878;51.774;7.220;2023-04-15T05:43:10;10.73;;;6.27;;
23410;SDS011;11878;51.774;7.220;2023-04-15T05:46:14;11.10;;;5.90;;
23410;SDS011;11878;51.774;7.220;2023-04-15T05:49:16;12.70;;;6.13;;
23410;SDS011;11878;51.774;7.220;2023-04-15T05:52:18;13.23;;;6.50;;
23410;SDS011;11878;51.774;7.220;2023-04-15T05:55:21;9.53;;;5.60;;
23410;SDS011;11878;51.774;7.220;2023-04-15T05:58:24;11.40;;;6.00;;
23410;SDS011;11878;51.774;7.220;2023-04-15T06:01:26;11.50;;;6.37;;
23410;SDS011;11878;51.774;7.220;2023-04-15T06:04:29;12.37;;;5.97;;
23410;SDS011;11878;51.774;7.220;2023-04-15T06:07:31;12.13;;;6.60;;
23410;SDS011;11878;51.774;7.220;2023-04-15T06:10:38;11.20;;;5.57;;
23410;SDS011;11878;51.774;7.220;2023-04-15T06:13:41;12.63;;;7.10;;
23410;SDS011;11878;51.774;7.220;2023-04-15T06:16:43;13.20;;;6.97;;
23410;SDS011;11878;51.774;7.220;2023-04-15T06:19:46;11.90;;;6.70;;
23410;SDS011;11878;51.774;7.220;2023-04-15T06:22:49;14.30;;;7.57;;
23410;SDS011;11878;51.774;7.220;2023-04-15T06:25:52;14.40;;;6.47;;
23410;SDS011;11878;51.774;7.220;2023-04-15T06:28:57;11.43;;;7.87;;
23410;SDS011;11878;51.774;7.220;2023-04-15T06:32:00;15.13;;;7.10;;
23410;SDS011;11878;51.774;7.220;2023-04-15T06:35:06;18.30;;;7.43;;
23410;SDS011;11878;51.774;7.220;2023-04-15T06:38:12;13.43;;;7.60;;
23410;SDS011;11878;51.774;7.220;2023-04-15T06:41:20;13.53;;;7.10;;
23410;SDS011;11878;51.774;7.220;2023-04-15T06:44:26;15.93;;;7.37;;
23410;SDS011;11878;51.774;7.220;2023-04-15T06:51:20;14.60;;;7.90;;
23410;SDS011;11878;51.774;7.220;2023-04-15T06:54:27;15.20;;;7.57;;
23410;SDS011;11878;51.774;7.220;2023-04-15T06:57:32;13.37;;;7.97;;
23410;SDS011;11878;51.774;7.220;2023-04-15T07:00:35;13.10;;;8.37;;
23410;SDS011;11878;51.774;7.220;2023-04-15T07:03:41;12.90;;;7.43;;
23410;SDS011;11878;51.774;7.220;2023-04-15T07:06:43;14.73;;;7.43;;
23410;SDS011;11878;51.774;7.220;2023-04-15T07:09:47;13.73;;;7.17;;
23410;SDS011;11878;51.774;7.220;2023-04-15T07:12:50;15.37;;;7.73;;
23410;SDS011;11878;51.774;7.220;2023-04-15T07:15:53;12.70;;;7.67;;
23410;SDS011;11878;51.774;7.220;2023-04-15T07:22:36;12.90;;;7.63;;
23410;SDS011;11878;51.774;7.220;2023-04-15T07:42:52;12.77;;;7.00;;
23410;SDS011;11878;51.774;7.220;2023-04-15T07:46:13;17.37;;;7.00;;
23410;SDS011;11878;51.774;7.220;2023-04-15T07:49:22;10.77;;;6.33;;
23410;SDS011;11878;51.774;7.220;2023-04-15T07:52:30;9.20;;;5.37;;
23410;SDS011;11878;51.774;7.220;2023-04-15T07:55:42;11.07;;;6.10;;
23410;SDS011;11878;51.774;7.220;2023-04-15T07:58:47;8.43;;;4.93;;
23410;SDS011;11878;51.774;7.220;2023-04-15T08:01:50;8.57;;;5.13;;
23410;SDS011;11878;51.774;7.220;2023-04-15T08:04:53;9.33;;;5.07;;
23410;SDS011;11878;51.774;7.220;2023-04-15T08:07:59;7.30;;;4.67;;
23410;SDS011;11878;51.774;7.220;2023-04-15T08:11:22;7.23;;;4.20;;
23410;SDS011;11878;51.774;7.220;2023-04-15T08:14:30;7.57;;;4.43;;
23410;SDS011;11878;51.774;7.220;2023-04-15T08:17:35;6.53;;;4.50;;
23410;SDS011;11878;51.774;7.220;2023-04-15T08:21:00;8.53;;;4.80;;
23410;SDS011;11878;51.774;7.220;2023-04-15T08:24:06;6.70;;;3.87;;
23410;SDS011;11878;51.774;7.220;2023-04-15T08:27:12;8.07;;;4.17;;
23410;SDS011;11878;51.774;7.220;2023-04-15T08:30:17;7.07;;;4.40;;
23410;SDS011;11878;51.774;7.220;2023-04-15T08:33:24;7.70;;;4.67;;
23410;SDS011;11878;51.774;7.220;2023-04-15T08:36:33;9.10;;;5.63;;
23410;SDS011;11878;51.774;7.220;2023-04-15T08:43:43;8.93;;;5.03;;
23410;SDS011;11878;51.774;7.220;2023-04-15T08:46:55;9.30;;;4.90;;
23410;SDS011;11878;51.774;7.220;2023-04-15T08:50:17;10.10;;;5.77;;
23410;SDS011;11878;51.774;7.220;2023-04-15T08:53:23;8.63;;;5.17;;
23410;SDS011;11878;51.774;7.220;2023-04-15T08:56:37;9.70;;;5.57;;
23410;SDS011;11878;51.774;7.220;2023-04-15T08:59:39;7.93;;;5.03;;
23410;SDS011;11878;51.774;7.220;2023-04-15T09:02:43;10.90;;;5.33;;
23410;SDS011;11878;51.774;7.220;2023-04-15T09:05:45;9.63;;;5.77;;
23410;SDS011;11878;51.774;7.220;2023-04-15T09:22:20;9.27;;;5.50;;
23410;SDS011;11878;51.774;7.220;2023-04-15T09:25:26;7.83;;;5.30;;
23410;SDS011;11878;51.774;7.220;2023-04-15T09:28:48;8.30;;;4.60;;
23410;SDS011;11878;51.774;7.220;2023-04-15T09:31:50;9.30;;;5.57;;
23410;SDS011;11878;51.774;7.220;2023-04-15T09:34:55;8.80;;;5.47;;
23410;SDS011;11878;51.774;7.220;2023-04-15T09:38:01;8.80;;;5.23;;
23410;SDS011;11878;51.774;7.220;2023-04-15T09:41:17;8.63;;;4.90;;
23410;SDS011;11878;51.774;7.220;2023-04-15T09:44:23;8.67;;;5.30;;
23410;SDS011;11878;51.774;7.220;2023-04-15T09:47:27;10.33;;;5.83;;
23410;SDS011;11878;51.774;7.220;2023-04-15T10:24:54;8.30;;;4.80;;
23410;SDS011;11878;51.774;7.220;2023-04-15T10:28:09;9.07;;;4.97;;
23410;SDS011;11878;51.774;7.220;2023-04-15T10:42:16;7.60;;;4.93;;
23410;SDS011;11878;51.774;7.220;2023-04-15T10:45:27;7.73;;;4.40;;
23410;SDS011;11878;51.774;7.220;2023-04-15T10:48:36;8.23;;;5.10;;
23410;SDS011;11878;51.774;7.220;2023-04-15T10:51:39;8.50;;;4.80;;
23410;SDS011;11878;51.774;7.220;2023-04-15T10:54:45;10.17;;;4.40;;
23410;SDS011;11878;51.774;7.220;2023-04-15T10:58:12;7.57;;;4.50;;
23410;SDS011;11878;51.774;7.220;2023-04-15T11:02:07;8.53;;;4.57;;
23410;SDS011;11878;51.774;7.220;2023-04-15T11:08:58;6.83;;;3.93;;
23410;SDS011;11878;51.774;7.220;2023-04-15T11:19:20;7.33;;;3.90;;
23410;SDS011;11878;51.774;7.220;2023-04-15T11:22:57;7.67;;;3.87;;
23410;SDS011;11878;51.774;7.220;2023-04-15T11:26:16;6.17;;;4.20;;
23410;SDS011;11878;51.774;7.220;2023-04-15T11:50:26;5.37;;;2.73;;
23410;SDS011;11878;51.774;7.220;2023-04-15T12:00:31;5.27;;;2.80;;
23410;SDS011;11878;51.774;7.220;2023-04-15T12:03:39;6.60;;;3.10;;
23410;SDS011;11878;51.774;7.220;2023-04-15T12:24:34;4.13;;;2.67;;
23410;SDS011;11878;51.774;7.220;2023-04-15T12:27:40;5.47;;;2.40;;
23410;SDS011;11878;51.774;7.220;2023-04-15T12:30:49;5.47;;;2.60;;
23410;SDS011;11878;51.774;7.220;2023-04-15T12:33:59;4.27;;;2.23;;
23410;SDS011;11878;51.774;7.220;2023-04-15T12:37:05;3.73;;;2.50;;
23410;SDS011;11878;51.774;7.220;2023-04-15T12:40:29;5.07;;;2.97;;
23410;SDS011;11878;51.774;7.220;2023-04-15T12:43:39;7.40;;;2.50;;
23410;SDS011;11878;51.774;7.220;2023-04-15T12:46:46;4.03;;;2.07;;
23410;SDS011;11878;51.774;7.220;2023-04-15T12:49:54;3.90;;;2.00;;
23410;SDS011;11878;51.774;7.220;2023-04-15T12:53:00;5.73;;;2.23;;
23410;SDS011;11878;51.774;7.220;2023-04-15T12:59:57;4.87;;;2.23;;
23410;SDS011;11878;51.774;7.220;2023-04-15T13:03:03;3.90;;;2.30;;
23410;SDS011;11878;51.774;7.220;2023-04-15T13:06:07;3.83;;;2.13;;
23410;SDS011;11878;51.774;7.220;2023-04-15T13:09:16;5.60;;;2.70;;
23410;SDS011;11878;51.774;7.220;2023-04-15T13:12:18;18.57;;;9.97;;
23410;SDS011;11878;51.774;7.220;2023-04-15T13:15:21;3.20;;;2.07;;
23410;SDS011;11878;51.774;7.220;2023-04-15T13:18:31;3.77;;;2.13;;
23410;SDS011;11878;51.774;7.220;2023-04-15T13:21:35;4.13;;;2.20;;
23410;SDS011;11878;51.774;7.220;2023-04-15T13:24:58;3.33;;;1.90;;
23410;SDS011;11878;51.774;7.220;2023-04-15T13:28:36;2.63;;;1.90;;
23410;SDS011;11878;51.774;7.220;2023-04-15T13:31:39;3.20;;;1.93;;
23410;SDS011;11878;51.774;7.220;2023-04-15T13:34:48;5.63;;;1.87;;
23410;SDS011;11878;51.774;7.220;2023-04-15T13:37:52;2.83;;;1.80;;
23410;SDS011;11878;51.774;7.220;2023-04-15T13:40:57;4.63;;;2.33;;
23410;SDS011;11878;51.774;7.220;2023-04-15T13:44:00;4.93;;;2.50;;
23410;SDS011;11878;51.774;7.220;2023-04-15T13:47:15;6.33;;;2.10;;
23410;SDS011;11878;51.774;7.220;2023-04-15T13:50:18;3.93;;;2.07;;
23410;SDS011;11878;51.774;7.220;2023-04-15T14:04:05;3.80;;;1.33;;
23410;SDS011;11878;51.774;7.220;2023-04-15T14:07:08;3.03;;;1.67;;
23410;SDS011;11878;51.774;7.220;2023-04-15T14:10:10;3.53;;;1.53;;
23410;SDS011;11878;51.774;7.220;2023-04-15T14:13:12;3.60;;;1.90;;
23410;SDS011;11878;51.774;7.220;2023-04-15T14:16:20;3.77;;;1.50;;
23410;SDS011;11878;51.774;7.220;2023-04-15T14:19:22;7.63;;;1.70;;
23410;SDS011;11878;51.774;7.220;2023-04-15T14:22:24;2.60;;;1.70;;
23410;SDS011;11878;51.774;7.220;2023-04-15T14:25:36;3.13;;;2.10;;
23410;SDS011;11878;51.774;7.220;2023-04-15T14:28:39;2.20;;;1.63;;
23410;SDS011;11878;51.774;7.220;2023-04-15T14:31:43;5.33;;;2.10;;
23410;SDS011;11878;51.774;7.220;2023-04-15T14:35:05;4.37;;;2.27;;
23410;SDS011;11878;51.774;7.220;2023-04-15T14:38:07;7.70;;;2.03;;
23410;SDS011;11878;51.774;7.220;2023-04-15T14:41:11;3.07;;;1.43;;
23410;SDS011;11878;51.774;7.220;2023-04-15T14:44:13;6.73;;;2.03;;
23410;SDS011;11878;51.774;7.220;2023-04-15T14:47:16;4.17;;;1.67;;
23410;SDS011;11878;51.774;7.220;2023-04-15T14:50:18;5.67;;;1.60;;
23410;SDS011;11878;51.774;7.220;2023-04-15T14:53:20;2.77;;;1.70;;
23410;SDS011;11878;51.774;7.220;2023-04-15T14:56:22;4.07;;;2.13;;
23410;SDS011;11878;51.774;7.220;2023-04-15T14:59:24;3.70;;;2.13;;
23410;SDS011;11878;51.774;7.220;2023-04-15T15:02:26;6.50;;;2.07;;
23410;SDS011;11878;51.774;7.220;2023-04-15T15:05:41;6.83;;;3.07;;
23410;SDS011;11878;51.774;7.220;2023-04-15T15:08:45;5.80;;;3.03;;
23410;SDS011;11878;51.774;7.220;2023-04-15T15:11:48;13.67;;;5.37;;
23410;SDS011;11878;51.774;7.220;2023-04-15T15:14:51;11.03;;;4.83;;
23410;SDS011;11878;51.774;7.220;2023-04-15T15:17:53;4.97;;;2.33;;
23410;SDS011;11878;51.774;7.220;2023-04-15T15:20:55;3.97;;;2.63;;
23410;SDS011;11878;51.774;7.220;2023-04-15T15:23:57;6.33;;;3.33;;
23410;SDS011;11878;51.774;7.220;2023-04-15T15:26:58;3.83;;;2.17;;
23410;SDS011;11878;51.774;7.220;2023-04-15T15:30:02;3.67;;;1.80;;
23410;SDS011;11878;51.774;7.220;2023-04-15T15:33:07;6.30;;;3.13;;
23410;SDS011;11878;51.774;7.220;2023-04-15T15:36:12;4.87;;;2.47;;
23410;SDS011;11878;51.774;7.220;2023-04-15T15:39:22;8.03;;;3.97;;
23410;SDS011;11878;51.774;7.220;2023-04-15T15:42:24;6.77;;;2.40;;
23410;SDS011;11878;51.774;7.220;2023-04-15T15:45:30;3.37;;;2.57;;
23410;SDS011;11878;51.774;7.220;2023-04-15T15:48:33;5.53;;;2.10;;
23410;SDS011;11878;51.774;7.220;2023-04-15T15:51:36;5.97;;;2.27;;
23410;SDS011;11878;51.774;7.220;2023-04-15T15:54:39;4.20;;;2.40;;
23410;SDS011;11878;51.774;7.220;2023-04-15T15:57:42;4.23;;;2.67;;
23410;SDS011;11878;51.774;7.220;2023-04-15T16:00:44;3.27;;;2.40;;
23410;SDS011;11878;51.774;7.220;2023-04-15T16:03:47;3.73;;;2.30;;
23410;SDS011;11878;51.774;7.220;2023-04-15T16:06:51;5.23;;;2.57;;
23410;SDS011;11878;51.774;7.220;2023-04-15T16:10:00;5.03;;;2.27;;
23410;SDS011;11878;51.774;7.220;2023-04-15T16:13:02;3.63;;;2.37;;
23410;SDS011;11878;51.774;7.220;2023-04-15T16:16:04;5.47;;;2.30;;
23410;SDS011;11878;51.774;7.220;2023-04-15T16:19:06;4.87;;;2.43;;
23410;SDS011;11878;51.774;7.220;2023-04-15T16:22:13;4.03;;;2.20;;
23410;SDS011;11878;51.774;7.220;2023-04-15T16:46:21;4.07;;;2.77;;
23410;SDS011;11878;51.774;7.220;2023-04-15T16:49:23;4.47;;;2.83;;
23410;SDS011;11878;51.774;7.220;2023-04-15T16:52:27;6.33;;;3.00;;
23410;SDS011;11878;51.774;7.220;2023-04-15T16:55:29;8.87;;;4.03;;
23410;SDS011;11878;51.774;7.220;2023-04-15T16:58:31;4.17;;;3.43;;
23410;SDS011;11878;51.774;7.220;2023-04-15T17:01:33;2.80;;;2.00;;
23410;SDS011;11878;51.774;7.220;2023-04-15T17:04:35;6.63;;;3.60;;
23410;SDS011;11878;51.774;7.220;2023-04-15T17:07:37;4.27;;;2.67;;
23410;SDS011;11878;51.774;7.220;2023-04-15T17:10:39;5.23;;;2.70;;
23410;SDS011;11878;51.774;7.220;2023-04-15T17:13:40;5.60;;;2.93;;
23410;SDS011;11878;51.774;7.220;2023-04-15T17:16:42;7.20;;;3.17;;
23410;SDS011;11878;51.774;7.220;2023-04-15T17:19:44;4.93;;;2.60;;
23410;SDS011;11878;51.774;7.220;2023-04-15T17:22:48;6.77;;;2.13;;
23410;SDS011;11878;51.774;7.220;2023-04-15T17:25:50;5.07;;;3.03;;
23410;SDS011;11878;51.774;7.220;2023-04-15T17:28:52;3.30;;;1.97;;
23410;SDS011;11878;51.774;7.220;2023-04-15T17:31:54;10.20;;;3.60;;
23410;SDS011;11878;51.774;7.220;2023-04-15T17:34:56;4.13;;;2.50;;
23410;SDS011;11878;51.774;7.220;2023-04-15T17:37:58;6.40;;;2.03;;
23410;SDS011;11878;51.774;7.220;2023-04-15T17:40:59;5.50;;;2.77;;
23410;SDS011;11878;51.774;7.220;2023-04-15T17:44:01;7.93;;;2.73;;
23410;SDS011;11878;51.774;7.220;2023-04-15T17:47:03;5.60;;;2.40;;
23410;SDS011;11878;51.774;7.220;2023-04-15T17:50:06;5.33;;;2.80;;
23410;SDS011;11878;51.774;7.220;2023-04-15T17:53:09;7.73;;;2.67;;
23410;SDS011;11878;51.774;7.220;2023-04-15T17:56:15;12.00;;;3.50;;
23410;SDS011;11878;51.774;7.220;2023-04-15T17:59:19;10.53;;;4.33;;
23410;SDS011;11878;51.774;7.220;2023-04-15T18:02:25;7.10;;;3.03;;
23410;SDS011;11878;51.774;7.220;2023-04-15T18:05:28;5.00;;;2.37;;
23410;SDS011;11878;51.774;7.220;2023-04-15T18:08:30;5.87;;;2.50;;
23410;SDS011;11878;51.774;7.220;2023-04-15T18:11:32;4.63;;;2.60;;
23410;SDS011;11878;51.774;7.220;2023-04-15T18:14:35;8.10;;;2.97;;
23410;SDS011;11878;51.774;7.220;2023-04-15T18:17:36;11.07;;;3.80;;
23410;SDS011;11878;51.774;7.220;2023-04-15T18:20:40;11.83;;;4.10;;
23410;SDS011;11878;51.774;7.220;2023-04-15T18:23:42;5.93;;;3.43;;
23410;SDS011;11878;51.774;7.220;2023-04-15T18:26:51;6.67;;;2.57;;
23410;SDS011;11878;51.774;7.220;2023-04-15T18:29:55;6.27;;;2.60;;
23410;SDS011;11878;51.774;7.220;2023-04-15T18:32:57;5.77;;;2.40;;
23410;SDS011;11878;51.774;7.220;2023-04-15T18:35:59;6.60;;;3.03;;
23410;SDS011;11878;51.774;7.220;2023-04-15T18:39:02;5.80;;;3.10;;
23410;SDS011;11878;51.774;7.220;2023-04-15T18:42:05;9.37;;;3.63;;
23410;SDS011;11878;51.774;7.220;2023-04-15T18:45:07;5.47;;;2.97;;
23410;SDS011;11878;51.774;7.220;2023-04-15T18:48:09;6.67;;;2.57;;
23410;SDS011;11878;51.774;7.220;2023-04-15T18:51:11;7.97;;;3.00;;
23410;SDS011;11878;51.774;7.220;2023-04-15T18:54:13;5.37;;;2.70;;
23410;SDS011;11878;51.774;7.220;2023-04-15T18:57:15;5.23;;;2.30;;
23410;SDS011;11878;51.774;7.220;2023-04-15T19:00:25;9.30;;;2.97;;
23410;SDS011;11878;51.774;7.220;2023-04-15T19:03:27;5.20;;;2.50;;
23410;SDS011;11878;51.774;7.220;2023-04-15T19:06:29;7.40;;;3.77;;
23410;SDS011;11878;51.774;7.220;2023-04-15T19:09:32;3.93;;;1.97;;
23410;SDS011;11878;51.774;7.220;2023-04-15T19:12:35;5.70;;;2.73;;
23410;SDS011;11878;51.774;7.220;2023-04-15T19:15:37;4.07;;;2.30;;
23410;SDS011;11878;51.774;7.220;2023-04-15T19:18:39;6.60;;;2.50;;
23410;SDS011;11878;51.774;7.220;2023-04-15T19:21:43;7.90;;;2.67;;
23410;SDS011;11878;51.774;7.220;2023-04-15T19:24:47;4.97;;;2.73;;
23410;SDS011;11878;51.774;7.220;2023-04-15T19:27:52;7.53;;;3.23;;
23410;SDS011;11878;51.774;7.220;2023-04-15T19:30:53;5.47;;;2.70;;
23410;SDS011;11878;51.774;7.220;2023-04-15T19:33:56;6.00;;;2.93;;
23410;SDS011;11878;51.774;7.220;2023-04-15T19:36:58;6.23;;;2.90;;
23410;SDS011;11878;51.774;7.220;2023-04-15T19:40:00;5.13;;;2.73;;
23410;SDS011;11878;51.774;7.220;2023-04-15T19:43:02;5.70;;;3.07;;
23410;SDS011;11878;51.774;7.220;2023-04-15T19:46:04;8.73;;;3.00;;
23410;SDS011;11878;51.774;7.220;2023-04-15T19:49:07;8.13;;;3.03;;
23410;SDS011;11878;51.774;7.220;2023-04-15T19:52:08;8.27;;;3.47;;
23410;SDS011;11878;51.774;7.220;2023-04-15T19:55:10;5.57;;;2.90;;
23410;SDS011;11878;51.774;7.220;2023-04-15T19:58:15;9.00;;;3.20;;
23410;SDS011;11878;51.774;7.220;2023-04-15T20:01:18;5.13;;;3.03;;
23410;SDS011;11878;51.774;7.220;2023-04-15T20:04:20;6.53;;;3.37;;
23410;SDS011;11878;51.774;7.220;2023-04-15T20:07:23;6.47;;;3.07;;
23410;SDS011;11878;51.774;7.220;2023-04-15T20:10:25;5.40;;;3.00;;
23410;SDS011;11878;51.774;7.220;2023-04-15T20:13:27;8.27;;;3.70;;
23410;SDS011;11878;51.774;7.220;2023-04-15T20:16:32;10.20;;;4.03;;
23410;SDS011;11878;51.774;7.220;2023-04-15T20:19:37;8.17;;;2.77;;
23410;SDS011;11878;51.774;7.220;2023-04-15T20:22:39;6.93;;;3.30;;
23410;SDS011;11878;51.774;7.220;2023-04-15T20:25:41;9.20;;;4.13;;
23410;SDS011;11878;51.774;7.220;2023-04-15T20:28:44;5.73;;;3.03;;
23410;SDS011;11878;51.774;7.220;2023-04-15T20:31:45;6.83;;;3.60;;
23410;SDS011;11878;51.774;7.220;2023-04-15T20:34:50;6.13;;;2.87;;
23410;SDS011;11878;51.774;7.220;2023-04-15T20:37:52;6.57;;;3.57;;
23410;SDS011;11878;51.774;7.220;2023-04-15T20:40:58;9.53;;;3.97;;
23410;SDS011;11878;51.774;7.220;2023-04-15T20:43:59;6.67;;;3.70;;
23410;SDS011;11878;51.774;7.220;2023-04-15T20:47:04;11.63;;;4.70;;
23410;SDS011;11878;51.774;7.220;2023-04-15T20:50:08;8.83;;;3.37;;
23410;SDS011;11878;51.774;7.220;2023-04-15T20:53:11;10.97;;;4.10;;
23410;SDS011;11878;51.774;7.220;2023-04-15T20:56:12;10.90;;;3.90;;
23410;SDS011;11878;51.774;7.220;2023-04-15T20:59:14;9.17;;;3.97;;
23410;SDS011;11878;51.774;7.220;2023-04-15T21:02:16;6.30;;;4.10;;
23410;SDS011;11878;51.774;7.220;2023-04-15T21:05:18;8.83;;;4.13;;
23410;SDS011;11878;51.774;7.220;2023-04-15T21:08:20;10.47;;;4.43;;
23410;SDS011;11878;51.774;7.220;2023-04-15T21:11:30;8.10;;;4.47;;
23410;SDS011;11878;51.774;7.220;2023-04-15T21:14:52;11.80;;;4.80;;
23410;SDS011;11878;51.774;7.220;2023-04-15T21:17:54;8.97;;;4.20;;
23410;SDS011;11878;51.774;7.220;2023-04-15T21:20:59;9.37;;;5.20;;
23410;SDS011;11878;51.774;7.220;2023-04-15T21:24:02;10.23;;;4.77;;
23410;SDS011;11878;51.774;7.220;2023-04-15T21:27:04;14.67;;;5.57;;
23410;SDS011;11878;51.774;7.220;2023-04-15T21:30:06;10.23;;;5.30;;
23410;SDS011;11878;51.774;7.220;2023-04-15T21:33:11;14.00;;;5.00;;
23410;SDS011;11878;51.774;7.220;2023-04-15T21:36:14;10.63;;;5.03;;
23410;SDS011;11878;51.774;7.220;2023-04-15T21:39:16;13.90;;;5.77;;
23410;SDS011;11878;51.774;7.220;2023-04-15T21:42:17;17.10;;;6.00;;
23410;SDS011;11878;51.774;7.220;2023-04-15T21:45:19;9.83;;;5.27;;
23410;SDS011;11878;51.774;7.220;2023-04-15T21:48:21;15.00;;;5.40;;
23410;SDS011;11878;51.774;7.220;2023-04-15T21:51:23;14.07;;;5.30;;
23410;SDS011;11878;51.774;7.220;2023-04-15T21:54:26;18.67;;;6.40;;